• Join FlightAware (Why Join?)
  • Login
  • US Flag 
03:50AM EDT


 

Airport Tracker/Info


-or-


 

Live Flight TrackerFlight Track Log ✈ AAL963 ✈ 23-Apr-2013 ✈ KDFW - SBGR / GRU

Flight Track Log - Related Links

Times and Time Zones

All times are in EDT time to prevent confusion due to time zone crossing. See the AAL963 flight status page for this flight to view local times or setup timezone preferences in your user account.

Time Position Orientation Groundspeed Altitude Reporting Facility
EDT Latitude Longitude Course Direction KTS MPH feet Rate Location/Type
09:41PM 32.9350 -97.0260 12° North 167 192 2,100  Level FlightAware
09:41PM 32.9570 -97.0190 15° North 209 241 2,200 1,080 Climbing FlightAware
09:42PM 32.9860 -97.0110 13° North 224 258 3,100 1,620 Climbing FlightAware
09:42PM 33.0120 -97.0050 11° North 239 275 3,700 1,260 Climbing FlightAware
09:43PM 33.0450 -96.9880 23° Northeast 270 311 4,300 1,200 Climbing FlightAware
09:43PM 33.0570 -96.9700 51° Northeast 282 325 4,600 960 Climbing FlightAware
09:43PM 33.0610 -96.9550 72° East 287 330 4,700 1,620 Climbing FlightAware
09:43PM 33.0540 -96.9090 100° East 279 321 5,700 1,980 Climbing FlightAware
09:44PM 33.0350 -96.8700 120° Southeast 283 326 6,700 1,800 Climbing FlightAware
09:44PM 33.0180 -96.8370 122° Southeast 292 336 7,400 1,800 Climbing FlightAware
09:45PM 32.9970 -96.7960 121° Southeast 298 343 8,400 2,040 Climbing FlightAware
09:45PM 32.9780 -96.7580 121° Southeast 303 349 9,300 1,500 Climbing FlightAware
09:46PM 32.9450 -96.6920 121° Southeast 331 381 10,200 1,260 Climbing FlightAware
09:47PM 32.9110 -96.6260 122° Southeast 358 412 11,100 1,500 Climbing FlightAware
09:47PM 32.8710 -96.5480 121° Southeast 381 438 12,400 1,860 Climbing FlightAware
09:48PM 32.8340 -96.4740 121° Southeast 394 453 13,800 2,100 Climbing FlightAware
09:49PM 32.7960 -96.4010 122° Southeast 402 463 15,200 2,160 Climbing FlightAware
09:50PM 32.7590 -96.3120 116° Southeast 421 484 16,900 2,220 Climbing FlightAware
09:50PM 32.7430 -96.2180 101° East 435 501 18,400 1,920 Climbing FlightAware
09:51PM 32.7290 -96.1240 100° East 450 518 19,500 1,620 Climbing FlightAware
09:52PM 32.7110 -96.0100 101° East 467 537 20,700 1,620 Climbing FlightAware
09:52PM 32.6980 -95.9300 101° East 474 545 21,700 1,800 Climbing FlightAware
09:53PM 32.6871 -95.8629 101° East 481 554 22,400 1,920 Climbing FlightAware ADS-B
09:53PM 32.6737 -95.7795 101° East 484 557 23,400 1,680 Climbing FlightAware ADS-B
09:54PM 32.6610 -95.6887 99° East 495 570 24,300 1,500 Climbing FlightAware ADS-B
09:54PM 32.6594 -95.6616 94° East 499 574 24,500 1,380 Climbing FlightAware ADS-B
09:54PM 32.6597 -95.6095 90° East 503 579 25,000 1,500 Climbing FlightAware ADS-B
09:55PM 32.6657 -95.5221 85° East 506 582 25,800 1,380 Climbing FlightAware ADS-B
09:55PM 32.6732 -95.4119 85° East 515 593 26,700 1,260 Climbing FlightAware ADS-B
09:56PM 32.6794 -95.3182 85° East 520 598 27,400 1,200 Climbing FlightAware ADS-B
09:56PM 32.6856 -95.2254 85° East 528 608 28,000 1,140 Climbing FlightAware ADS-B
09:57PM 32.6914 -95.1374 85° East 533 613 28,600 1,140 Climbing FlightAware ADS-B
09:57PM 32.6975 -95.0426 86° East 537 618 29,200 900 Climbing FlightAware ADS-B
09:58PM 32.7035 -94.9492 86° East 547 629 29,600 900 Climbing FlightAware ADS-B
09:58PM 32.7085 -94.8677 86° East 550 633 30,100 1,020 Climbing FlightAware ADS-B
09:59PM 32.7087 -94.8466 89° East 551 634 30,200 960 Climbing FlightAware ADS-B
09:59PM 32.7014 -94.7745 97° East 551 634 30,600 960 Climbing FlightAware ADS-B
09:59PM 32.6971 -94.7540 104° East 549 632 30,700 900 Climbing FlightAware ADS-B
09:59PM 32.6873 -94.7183 108° East 548 631 30,900 900 Climbing FlightAware ADS-B
10:00PM 32.6559 -94.6247 112° Southeast 549 632 31,400 900 Climbing FlightAware ADS-B
10:00PM 32.6460 -94.5956 112° Southeast 551 634 31,600 1,500 Climbing FlightAware ADS-B
10:01PM 32.6136 -94.5014 112° Southeast 549 632 32,500 1,560 Climbing FlightAware ADS-B
10:01PM 32.5850 -94.4187 112° Southeast 539 620 33,300 1,320 Climbing FlightAware ADS-B
10:01PM 32.5699 -94.3825 116° Southeast 535 616 33,500 720 Climbing FlightAware ADS-B
10:02PM 32.5282 -94.2985 120° Southeast 537 618 33,900 900 Climbing FlightAware ADS-B
10:03PM 32.4557 -94.1509 120° Southeast 537 618 34,900 900 Climbing FlightAware ADS-B
10:03PM 32.4151 -94.0657 119° Southeast 539 620 35,300 540 Climbing FlightAware ADS-B
10:04PM 32.3832 -93.9830 115° Southeast 549 632 35,500 600 Climbing FlightAware ADS-B
10:05PM 32.3514 -93.8818 110° East 553 636 36,000 720 Climbing FlightAware ADS-B
10:05PM 32.3073 -93.7399 110° East 551 634 36,600 540 Climbing FlightAware ADS-B
10:06PM 32.2796 -93.6518 110° East 552 635 36,800 360 Climbing FlightAware ADS-B
10:06PM 32.2529 -93.5665 110° East 554 638 37,000 180 Climbing FlightAware ADS-B
10:07PM 32.2247 -93.4762 110° East 553 636 37,000  Level FlightAware ADS-B
10:08PM 32.1719 -93.3047 110° East 553 636 37,000  Level Houston Center
10:09PM 32.1186 -93.1358 110° East 550 633 37,000  Level Houston Center
10:15PM 31.6788 -92.2948 110° East 525 604 37,000  Level FlightAware ADS-B
10:15PM 31.6126 -92.2094 132° Southeast 526 605 37,000  Level FlightAware ADS-B
10:16PM 31.5598 -92.1415 132° Southeast 527 606 37,000  Level FlightAware ADS-B
10:17PM 31.4767 -92.0347 132° Southeast 530 610 37,000  Level FlightAware ADS-B
10:18PM 31.3339 -91.8517 132° Southeast 532 612 37,000  Level FlightAware ADS-B
10:19PM 31.2840 -91.7881 133° Southeast 533 613 37,000  Level FlightAware ADS-B
10:20PM 31.1650 -91.6370 133° Southeast 537 618 37,000  Level FlightAware
10:21PM 31.0870 -91.5370 132° Southeast 540 621 37,000  Level FlightAware
10:21PM 31.0200 -91.4540 133° Southeast 542 624 37,000  Level FlightAware
10:22PM 30.9510 -91.3660 132° Southeast 544 626 37,000  Level FlightAware
10:23PM 30.8830 -91.2810 133° Southeast 547 629 37,000  Level FlightAware
10:23PM 30.8080 -91.1860 133° Southeast 549 632 37,000  Level FlightAware
10:24PM 30.7310 -91.0890 133° Southeast 549 632 37,000  Level FlightAware
10:25PM 30.6680 -91.0090 132° Southeast 548 631 37,000  Level FlightAware
10:25PM 30.5920 -90.9160 133° Southeast 547 629 37,000  Level FlightAware
10:26PM 30.5150 -90.8200 133° Southeast 549 632 37,000  Level FlightAware
10:27PM 30.4450 -90.7330 133° Southeast 549 632 37,000  Level FlightAware
10:28PM 30.3820 -90.6540 133° Southeast 550 633 37,000  Level FlightAware
10:28PM 30.2970 -90.5510 134° Southeast 552 635 37,000  Level FlightAware
10:29PM 30.2370 -90.4760 133° Southeast 551 634 37,000  Level FlightAware
10:30PM 30.1480 -90.3670 133° Southeast 551 634 37,000  Level FlightAware
10:30PM 30.0820 -90.2850 133° Southeast 551 634 37,000  Level FlightAware
10:31PM 30.0100 -90.1980 134° Southeast 549 632 37,000  Level FlightAware
10:32PM 29.9460 -90.1190 133° Southeast 546 628 37,000  Level FlightAware
10:32PM 29.8760 -90.0340 134° Southeast 546 628 37,000  Level FlightAware
10:34PM 29.7540 -89.8720 131° Southeast 548 631 37,000  Level FlightAware
10:35PM 29.6560 -89.7390 130° Southeast 548 631 37,000  Level FlightAware
10:35PM 29.6010 -89.6630 130° Southeast 548 631 37,000  Level FlightAware
10:36PM 29.5460 -89.5870 130° Southeast 548 631 37,000  Level FlightAware
10:37PM 29.4900 -89.5110 130° Southeast 548 631 37,000  Level FlightAware
10:37PM 29.4350 -89.4350 130° Southeast 548 631 37,000  Level FlightAware
10:38PM 29.3650 -89.3400 130° Southeast 548 631 37,000  Level FlightAware
10:39PM 29.3100 -89.2640 130° Southeast 548 631 37,000  Level FlightAware
10:39PM 29.2550 -89.1890 130° Southeast 548 631 37,000  Level FlightAware
10:40PM 29.1990 -89.1130 130° Southeast 548 631 37,000  Level FlightAware
10:41PM 29.1440 -89.0370 130° Southeast 548 631 37,000  Level FlightAware
10:42PM 29.0750 -88.9430 130° Southeast 548 631 37,000  Level FlightAware
10:42PM 29.0190 -88.8670 130° Southeast 548 631 37,000  Level FlightAware
10:43PM 28.8600 -88.6200 126° Southeast 570 656 37,000  Level FlightAware
10:43PM 28.8350 -88.5320 108° East 570 656 37,000  Level FlightAware
10:44PM 28.8070 -88.4350 108° East 570 656 37,000  Level FlightAware
10:45PM 28.7730 -88.3130 108° East 570 656 37,000  Level FlightAware
10:46PM 28.7450 -88.2160 108° East 570 656 37,000  Level FlightAware
10:46PM 28.7170 -88.1190 108° East 570 656 37,000  Level FlightAware
10:47PM 28.6900 -88.0210 107° East 570 656 37,000  Level FlightAware
10:48PM 28.6620 -87.9240 108° East 570 656 37,000  Level FlightAware
10:48PM 28.6270 -87.8030 108° East 570 656 37,000  Level FlightAware
10:49PM 28.6000 -87.7060 108° East 570 656 37,000  Level FlightAware
10:50PM 28.5720 -87.6090 108° East 570 656 37,000  Level FlightAware
10:50PM 28.5440 -87.5110 108° East 570 656 37,000  Level FlightAware
10:51PM 28.5160 -87.4140 108° East 570 656 37,000  Level FlightAware
10:52PM 28.4820 -87.2930 108° East 570 656 37,000  Level FlightAware
10:53PM 28.4540 -87.1960 108° East 570 656 37,000  Level FlightAware
10:53PM 28.3600 -86.8575 108° East 567 652 37,000  Level Jacksonville Center
10:54PM 28.3111 -86.6858 108° East 572 658 37,000  Level Jacksonville Center
10:55PM 28.2575 -86.5119 109° East 569 655 37,000  Level Jacksonville Center
11:01PM 27.9800 -85.5740 109° East 570 656 37,000  Level FlightAware
11:02PM 27.9350 -85.4240 109° East 570 656 37,000  Level FlightAware
11:02PM 27.8970 -85.3000 109° East 570 656 37,000  Level FlightAware
11:03PM 27.8700 -85.1750 104° East 573 659 37,000  Level FlightAware
11:04PM 27.8530 -85.0750 101° East 571 657 37,000  Level FlightAware
11:05PM 27.8080 -84.8720 104° East 575 662 37,000  Level FlightAware
11:05PM 27.7600 -84.7670 117° Southeast 575 662 37,000  Level FlightAware
11:06PM 27.6920 -84.6580 125° Southeast 574 661 37,000  Level FlightAware
11:07PM 27.6300 -84.5590 125° Southeast 574 661 37,000  Level FlightAware
11:07PM 27.5690 -84.4620 125° Southeast 574 661 37,000  Level FlightAware
11:08PM 27.4980 -84.3490 125° Southeast 574 661 37,000  Level FlightAware
11:09PM 27.4370 -84.2530 126° Southeast 574 661 37,000  Level FlightAware
11:10PM 27.3700 -84.1470 125° Southeast 573 659 37,000  Level FlightAware
11:10PM 27.3160 -84.0620 126° Southeast 572 658 37,000  Level FlightAware
11:11PM 27.2450 -83.9520 126° Southeast 572 658 37,000  Level FlightAware
11:12PM 27.1930 -83.8700 125° Southeast 573 659 37,000  Level FlightAware
11:12PM 27.1150 -83.7480 126° Southeast 572 658 37,000  Level FlightAware
11:13PM 27.0500 -83.6480 126° Southeast 572 658 37,000  Level FlightAware
11:14PM 26.9630 -83.5130 126° Southeast 37,000  Level FlightAware
11:15PM 26.9010 -83.4160 126° Southeast 575 662 37,000  Level FlightAware
11:15PM 26.8260 -83.3010 126° Southeast 575 662 37,000  Level FlightAware
11:16PM 26.7770 -83.2230 125° Southeast 575 662 37,000  Level FlightAware
11:17PM 26.7080 -83.1190 127° Southeast 577 664 37,000  Level FlightAware
11:18PM 26.6430 -83.0190 126° Southeast 577 664 37,000  Level FlightAware
11:18PM 26.5820 -82.9220 125° Southeast 578 665 37,000  Level FlightAware
11:19PM 26.5030 -82.7990 126° Southeast 579 666 37,000  Level FlightAware
11:20PM 26.4410 -82.7030 126° Southeast 578 665 37,000  Level FlightAware
11:21PM 26.3350 -82.5400 126° Southeast 578 665 37,000  Level FlightAware
11:21PM 26.2700 -82.4390 126° Southeast 579 666 37,000  Level FlightAware
11:22PM 26.1970 -82.3270 126° Southeast 579 666 37,000  Level FlightAware
11:23PM 26.1370 -82.2350 126° Southeast 580 667 37,000  Level FlightAware
11:23PM 26.0820 -82.1510 126° Southeast 580 667 37,000  Level FlightAware
11:24PM 26.0020 -82.0300 126° Southeast 580 667 37,000  Level FlightAware
11:25PM 25.9390 -81.9330 126° Southeast 579 666 37,000  Level FlightAware
11:26PM 25.8650 -81.8210 126° Southeast 579 666 37,000  Level FlightAware
11:26PM 25.8040 -81.7280 126° Southeast 579 666 37,000  Level FlightAware
11:27PM 25.7300 -81.6160 126° Southeast 580 667 37,000  Level FlightAware
11:28PM 25.6670 -81.5210 126° Southeast 575 662 37,000  Level FlightAware
11:28PM 25.6050 -81.4270 126° Southeast 576 663 37,000  Level FlightAware
11:29PM 25.5320 -81.3170 126° Southeast 575 662 37,000  Level FlightAware
11:30PM 25.4700 -81.2250 127° Southeast 575 662 37,000  Level FlightAware
11:31PM 25.4050 -81.1270 126° Southeast 575 662 37,000  Level FlightAware
11:31PM 25.3330 -81.0200 127° Southeast 575 662 37,000  Level FlightAware
11:32PM 25.2690 -80.9240 126° Southeast 574 661 37,000  Level FlightAware
11:33PM 25.1980 -80.8180 126° Southeast 573 659 37,000  Level FlightAware
11:33PM 25.1340 -80.7240 127° Southeast 574 661 37,000  Level FlightAware
11:34PM 25.0690 -80.6270 126° Southeast 574 661 37,000  Level FlightAware
11:35PM 24.9980 -80.5220 127° Southeast 574 661 37,000  Level FlightAware
11:35PM 24.9340 -80.4270 127° Southeast 574 661 37,000  Level FlightAware
11:36PM 24.8700 -80.3330 127° Southeast 574 661 37,000  Level FlightAware
11:37PM 24.7980 -80.2280 127° Southeast 573 659 37,000  Level FlightAware
11:38PM 24.7330 -80.1320 127° Southeast 573 659 37,000  Level FlightAware
11:38PM 24.6780 -80.0510 127° Southeast 572 658 37,000  Level FlightAware
11:39PM 24.5970 -79.9330 127° Southeast 573 659 37,000  Level FlightAware
11:40PM 24.5360 -79.8430 127° Southeast 573 659 37,000  Level FlightAware
11:40PM 24.4590 -79.7320 127° Southeast 573 659 37,000  Level FlightAware
11:41PM 24.3820 -79.6560 138° Southeast 572 658 37,000  Level FlightAware
11:42PM 24.2860 -79.5800 144° Southeast 566 651 37,000  Level FlightAware
11:42PM 24.2000 -79.5100 143° Southeast 565 650 37,000  Level FlightAware
11:43PM 24.1170 -79.4400 142° Southeast 573 659 37,000  Level FlightAware
11:44PM 24.0220 -79.3600 142° Southeast 573 659 37,000  Level FlightAware
11:44PM 23.9560 -79.3040 142° Southeast 573 659 37,000  Level FlightAware
11:45PM 23.8430 -79.2060 142° Southeast 574 661 37,000  Level FlightAware
11:46PM 23.7550 -79.1280 141° Southeast 574 661 37,000  Level FlightAware
11:47PM 23.6850 -79.0660 141° Southeast 574 661 37,000  Level FlightAware
11:48PM 23.6150 -79.0040 141° Southeast 574 661 37,000  Level FlightAware
11:48PM 23.5270 -78.9270 141° Southeast 574 661 37,000  Level FlightAware
11:49PM 23.4740 -78.8800 141° Southeast 574 661 37,000  Level FlightAware
11:50PM 23.3860 -78.8030 141° Southeast 574 661 37,000  Level FlightAware
11:50PM 23.3160 -78.7410 141° Southeast 574 661 37,000  Level FlightAware
11:51PM 23.2460 -78.6790 141° Southeast 574 661 37,000  Level FlightAware
11:52PM 23.1580 -78.6020 141° Southeast 574 661 37,000  Level FlightAware
11:52PM 23.1060 -78.5550 140° Southeast 574 661 37,000  Level FlightAware
11:53PM 23.0180 -78.4780 141° Southeast 574 661 37,000  Level FlightAware
11:54PM 22.9480 -78.4160 141° Southeast 574 661 37,000  Level FlightAware
11:55PM 22.8780 -78.3550 141° Southeast 574 661 37,000  Level FlightAware
11:57PM 22.6414 -78.1694 144° Southeast  Level Estimated
11:58PM 22.5210 -78.0753 144° Southeast  Level Estimated
11:59PM 22.4006 -77.9814 144° Southeast  Level Estimated
12:00AM 22.2801 -77.8876 144° Southeast  Level Estimated
12:01AM 22.1596 -77.7940 144° Southeast  Level Estimated
12:02AM 22.0390 -77.7006 144° Southeast  Level Estimated
12:03AM 21.9183 -77.6073 144° Southeast  Level Estimated
12:04AM 21.7976 -77.5141 144° Southeast  Level Estimated
12:05AM 21.6769 -77.4212 144° Southeast  Level Estimated
12:06AM 21.5561 -77.3283 144° Southeast  Level Estimated
12:07AM 21.4352 -77.2357 144° Southeast  Level Estimated
12:08AM 21.3143 -77.1431 145° Southeast  Level Estimated
12:09AM 21.1933 -77.0508 145° Southeast  Level Estimated
12:10AM 21.0723 -76.9586 145° Southeast  Level Estimated
12:11AM 20.9513 -76.8665 145° Southeast  Level Estimated
12:12AM 20.8302 -76.7746 145° Southeast  Level Estimated
12:13AM 20.7090 -76.6828 145° Southeast  Level Estimated
12:14AM 20.5878 -76.5912 145° Southeast  Level Estimated
12:15AM 20.4665 -76.4997 145° Southeast  Level Estimated
12:16AM 20.3452 -76.4084 145° Southeast  Level Estimated
12:17AM 20.2239 -76.3172 145° Southeast  Level Estimated
12:18AM 20.1025 -76.2262 145° Southeast  Level Estimated
12:19AM 19.9811 -76.1353 145° Southeast  Level Estimated
12:20AM 19.8596 -76.0445 145° Southeast  Level Estimated
12:21AM 19.7380 -75.9539 145° Southeast  Level Estimated
12:22AM 19.6165 -75.8634 145° Southeast  Level Estimated
12:23AM 19.4948 -75.7731 145° Southeast  Level Estimated
12:24AM 19.3732 -75.6829 145° Southeast  Level Estimated
12:25AM 19.2515 -75.5928 145° Southeast  Level Estimated
12:26AM 19.1297 -75.5028 145° Southeast  Level Estimated
12:27AM 19.0079 -75.4130 145° Southeast  Level Estimated
12:28AM 18.8861 -75.3233 145° Southeast  Level Estimated
12:29AM 18.7642 -75.2338 145° Southeast  Level Estimated
12:30AM 18.6422 -75.1444 145° Southeast  Level Estimated
12:31AM 18.5203 -75.0551 145° Southeast  Level Estimated
12:32AM 18.3983 -74.9659 145° Southeast  Level Estimated
12:33AM 18.2762 -74.8769 145° Southeast  Level Estimated
12:34AM 18.1541 -74.7879 145° Southeast  Level Estimated
12:35AM 18.0320 -74.6992 145° Southeast  Level Estimated
12:36AM 17.9098 -74.6105 145° Southeast  Level Estimated
12:37AM 17.7876 -74.5219 145° Southeast  Level Estimated
12:38AM 17.6653 -74.4335 145° Southeast  Level Estimated
12:39AM 17.5430 -74.3452 145° Southeast  Level Estimated
12:40AM 17.4207 -74.2570 145° Southeast  Level Estimated
12:41AM 17.2983 -74.1690 146° Southeast  Level Estimated
12:42AM 17.1759 -74.0810 146° Southeast  Level Estimated
12:43AM 17.0534 -73.9932 146° Southeast  Level Estimated
12:44AM 16.9309 -73.9054 146° Southeast  Level Estimated
12:45AM 16.8084 -73.8178 146° Southeast  Level Estimated
12:46AM 16.6859 -73.7304 146° Southeast  Level Estimated
12:47AM 16.5632 -73.6430 146° Southeast  Level Estimated
12:48AM 16.4406 -73.5557 146° Southeast  Level Estimated
12:49AM 16.3182 -73.4687 146° Southeast  Level Estimated
12:50AM 16.1957 -73.3818 146° Southeast  Level Estimated
12:51AM 16.0732 -73.2950 146° Southeast  Level Estimated
12:52AM 15.9506 -73.2084 146° Southeast  Level Estimated
12:53AM 15.8280 -73.1218 146° Southeast  Level Estimated
12:54AM 15.7054 -73.0353 146° Southeast  Level Estimated
12:55AM 15.5827 -72.9490 146° Southeast  Level Estimated
12:56AM 15.4600 -72.8627 146° Southeast  Level Estimated
12:57AM 15.3373 -72.7766 146° Southeast  Level Estimated
12:58AM 15.2146 -72.6905 146° Southeast  Level Estimated
12:59AM 15.0918 -72.6046 146° Southeast  Level Estimated
01:00AM 14.9690 -72.5187 146° Southeast  Level Estimated
01:01AM 14.8461 -72.4329 146° Southeast  Level Estimated
01:02AM 14.7232 -72.3473 146° Southeast  Level Estimated
01:03AM 14.6003 -72.2617 146° Southeast  Level Estimated
01:04AM 14.4774 -72.1762 146° Southeast  Level Estimated
01:05AM 14.3544 -72.0909 146° Southeast  Level Estimated
01:06AM 14.2314 -72.0056 146° Southeast  Level Estimated
01:07AM 14.1083 -71.9204 146° Southeast  Level Estimated
01:08AM 13.9853 -71.8353 146° Southeast  Level Estimated
01:09AM 13.8622 -71.7503 146° Southeast  Level Estimated
01:10AM 13.7390 -71.6654 146° Southeast  Level Estimated
01:11AM 13.6159 -71.5806 146° Southeast  Level Estimated
01:12AM 13.4927 -71.4958 146° Southeast  Level Estimated
01:13AM 13.3694 -71.4112 146° Southeast  Level Estimated
01:14AM 13.2462 -71.3266 146° Southeast  Level Estimated
01:15AM 13.1229 -71.2422 146° Southeast  Level Estimated
01:16AM 12.9996 -71.1578 146° Southeast  Level Estimated
01:17AM 12.8763 -71.0735 146° Southeast  Level Estimated
01:18AM 12.7530 -70.9892 146° Southeast  Level Estimated
01:19AM 12.6296 -70.9051 146° Southeast  Level Estimated
01:20AM 12.5062 -70.8210 146° Southeast  Level Estimated
01:21AM 12.3827 -70.7371 146° Southeast  Level Estimated
01:22AM 12.2593 -70.6532 146° Southeast  Level Estimated
01:23AM 12.1358 -70.5693 146° Southeast  Level Estimated
01:24AM 12.0123 -70.4856 146° Southeast  Level Estimated
01:25AM 11.8888 -70.4019 146° Southeast  Level Estimated
01:26AM 11.7652 -70.3183 146° Southeast  Level Estimated
01:27AM 11.6416 -70.2348 146° Southeast  Level Estimated
01:28AM 11.5182 -70.1515 147° Southeast  Level Estimated
01:29AM 11.3948 -70.0683 147° Southeast  Level Estimated
01:30AM 11.2714 -69.9852 147° Southeast  Level Estimated
01:31AM 11.1480 -69.9021 147° Southeast  Level Estimated
01:32AM 11.0245 -69.8191 147° Southeast  Level Estimated
01:33AM 10.9010 -69.7362 147° Southeast  Level Estimated
01:34AM 10.7775 -69.6533 147° Southeast  Level Estimated
01:35AM 10.6539 -69.5705 147° Southeast  Level Estimated
01:36AM 10.5304 -69.4877 147° Southeast  Level Estimated
01:37AM 10.4068 -69.4051 147° Southeast  Level Estimated
01:38AM 10.2832 -69.3225 147° Southeast  Level Estimated
01:39AM 10.1596 -69.2400 147° Southeast  Level Estimated
01:40AM 10.0359 -69.1575 147° Southeast  Level Estimated
01:41AM 9.9122 -69.0751 147° Southeast  Level Estimated
01:42AM 9.7886 -68.9927 147° Southeast  Level Estimated
01:43AM 9.6648 -68.9105 147° Southeast  Level Estimated
01:44AM 9.5411 -68.8282 147° Southeast  Level Estimated
01:45AM 9.4174 -68.7461 147° Southeast  Level Estimated
01:46AM 9.2936 -68.6640 147° Southeast  Level Estimated
01:47AM 9.1698 -68.5819 147° Southeast  Level Estimated
01:48AM 9.0460 -68.4999 147° Southeast  Level Estimated
01:49AM 8.9222 -68.4180 147° Southeast  Level Estimated
01:50AM 8.7984 -68.3361 147° Southeast  Level Estimated
01:51AM 8.6745 -68.2543 147° Southeast  Level Estimated
01:52AM 8.5506 -68.1725 147° Southeast  Level Estimated
01:53AM 8.4267 -68.0908 147° Southeast  Level Estimated
01:54AM 8.3028 -68.0091 147° Southeast  Level Estimated
01:55AM 8.1789 -67.9275 147° Southeast  Level Estimated
01:56AM 8.0550 -67.8460 147° Southeast  Level Estimated
01:57AM 7.9310 -67.7645 147° Southeast  Level Estimated
01:58AM 7.8070 -67.6830 147° Southeast  Level Estimated
01:59AM 7.6831 -67.6016 147° Southeast  Level Estimated
02:00AM 7.5591 -67.5202 147° Southeast  Level Estimated
02:01AM 7.4350 -67.4389 147° Southeast  Level Estimated
02:02AM 7.3110 -67.3576 147° Southeast  Level Estimated
02:03AM 7.1870 -67.2764 147° Southeast  Level Estimated
02:04AM 7.0629 -67.1952 147° Southeast  Level Estimated
02:05AM 6.9388 -67.1141 147° Southeast  Level Estimated
02:06AM 6.8147 -67.0330 147° Southeast  Level Estimated
02:07AM 6.6906 -66.9519 147° Southeast  Level Estimated
02:08AM 6.5665 -66.8709 147° Southeast  Level Estimated
02:09AM 6.4424 -66.7899 147° Southeast  Level Estimated
02:10AM 6.3182 -66.7090 147° Southeast  Level Estimated
02:11AM 6.1941 -66.6281 147° Southeast  Level Estimated
02:12AM 6.0699 -66.5473 147° Southeast  Level Estimated
02:13AM 5.9457 -66.4664 147° Southeast  Level Estimated
02:14AM 5.8215 -66.3857 147° Southeast  Level Estimated
02:15AM 5.6973 -66.3049 147° Southeast  Level Estimated
02:16AM 5.5731 -66.2242 147° Southeast  Level Estimated
02:17AM 5.4494 -66.1438 147° Southeast  Level Estimated
02:18AM 5.3256 -66.0635 147° Southeast  Level Estimated
02:19AM 5.2018 -65.9831 147° Southeast  Level Estimated
02:20AM 5.0780 -65.9028 147° Southeast  Level Estimated
02:21AM 4.9542 -65.8226 147° Southeast  Level Estimated
02:22AM 4.8304 -65.7424 147° Southeast  Level Estimated
02:23AM 4.7065 -65.6622 147° Southeast  Level Estimated
02:24AM 4.5827 -65.5820 147° Southeast  Level Estimated
02:25AM 4.4588 -65.5018 147° Southeast  Level Estimated
02:26AM 4.3350 -65.4217 147° Southeast  Level Estimated
02:27AM 4.2111 -65.3416 147° Southeast  Level Estimated
02:28AM 4.0872 -65.2616 147° Southeast  Level Estimated
02:29AM 3.9634 -65.1815 147° Southeast  Level Estimated
02:30AM 3.8395 -65.1015 147° Southeast  Level Estimated
02:31AM 3.7156 -65.0215 147° Southeast  Level Estimated
02:32AM 3.5917 -64.9416 147° Southeast  Level Estimated
02:33AM 3.4677 -64.8616 147° Southeast  Level Estimated
02:34AM 3.3438 -64.7817 147° Southeast  Level Estimated
02:35AM 3.2199 -64.7018 147° Southeast  Level Estimated
02:36AM 3.0960 -64.6219 147° Southeast  Level Estimated
02:37AM 2.9720 -64.5420 147° Southeast  Level Estimated
02:38AM 2.8481 -64.4622 147° Southeast  Level Estimated
02:39AM 2.7241 -64.3823 147° Southeast  Level Estimated
02:40AM 2.6002 -64.3025 147° Southeast  Level Estimated
02:41AM 2.4762 -64.2227 147° Southeast  Level Estimated
02:42AM 2.3522 -64.1429 147° Southeast  Level Estimated
02:43AM 2.2283 -64.0631 147° Southeast  Level Estimated
02:44AM 2.1043 -63.9834 147° Southeast  Level Estimated
02:45AM 1.9803 -63.9036 147° Southeast  Level Estimated
02:46AM 1.8563 -63.8239 147° Southeast  Level Estimated
02:47AM 1.7323 -63.7442 147° Southeast  Level Estimated
02:48AM 1.6084 -63.6645 147° Southeast  Level Estimated
02:49AM 1.4844 -63.5848 147° Southeast  Level Estimated
02:50AM 1.3604 -63.5051 147° Southeast  Level Estimated
02:51AM 1.2364 -63.4254 147° Southeast  Level Estimated
02:52AM 1.1124 -63.3457 147° Southeast  Level Estimated
02:53AM 0.9884 -63.2660 147° Southeast  Level Estimated
02:54AM 0.8644 -63.1864 147° Southeast  Level Estimated
02:55AM 0.7404 -63.1067 147° Southeast  Level Estimated
02:56AM 0.6163 -63.0271 147° Southeast  Level Estimated
02:57AM 0.4923 -62.9474 147° Southeast  Level Estimated
02:58AM 0.3683 -62.8678 147° Southeast  Level Estimated
02:59AM 0.2443 -62.7881 147° Southeast  Level Estimated
03:00AM 0.1203 -62.7085 147° Southeast  Level Estimated
03:01AM -0.0037 -62.6288 147° Southeast  Level Estimated
03:02AM -0.1277 -62.5492 147° Southeast  Level Estimated
03:03AM -0.2517 -62.4695 147° Southeast  Level Estimated
03:04AM -0.3757 -62.3899 147° Southeast  Level Estimated
03:05AM -0.4997 -62.3102 147° Southeast  Level Estimated
03:06AM -0.6238 -62.2306 147° Southeast  Level Estimated
03:07AM -0.7478 -62.1509 147° Southeast  Level Estimated
03:08AM -0.8718 -62.0712 147° Southeast  Level Estimated
03:09AM -0.9958 -61.9916 147° Southeast  Level Estimated
03:10AM -1.1198 -61.9119 147° Southeast  Level Estimated
03:11AM -1.2438 -61.8322 147° Southeast  Level Estimated
03:12AM -1.3678 -61.7525 147° Southeast  Level Estimated
03:13AM -1.4918 -61.6728 147° Southeast  Level Estimated
03:14AM -1.6158 -61.5931 147° Southeast  Level Estimated
03:15AM -1.7398 -61.5134 147° Southeast  Level Estimated
03:16AM -1.8637 -61.4337 147° Southeast  Level Estimated
03:17AM -1.9877 -61.3540 147° Southeast  Level Estimated
03:18AM -2.1117 -61.2742 147° Southeast  Level Estimated
03:19AM -2.2357 -61.1945 147° Southeast  Level Estimated
03:20AM -2.3596 -61.1147 147° Southeast  Level Estimated
03:21AM -2.4836 -61.0349 147° Southeast  Level Estimated
03:22AM -2.6076 -60.9551 147° Southeast  Level Estimated
03:23AM -2.7315 -60.8753 147° Southeast  Level Estimated
03:24AM -2.8555 -60.7954 147° Southeast  Level Estimated
03:25AM -2.9794 -60.7156 147° Southeast  Level Estimated
03:26AM -3.1034 -60.6357 147° Southeast  Level Estimated
03:27AM -3.2273 -60.5558 147° Southeast  Level Estimated
03:28AM -3.3512 -60.4759 147° Southeast  Level Estimated
03:29AM -3.4752 -60.3960 147° Southeast  Level Estimated
03:30AM -3.5991 -60.3161 147° Southeast  Level Estimated
03:31AM -3.7230 -60.2361 147° Southeast  Level Estimated
03:32AM -3.8469 -60.1561 147° Southeast  Level Estimated
03:33AM -3.9708 -60.0761 147° Southeast  Level Estimated
03:34AM -4.0946 -59.9960 147° Southeast  Level Estimated
03:35AM -4.2185 -59.9160 147° Southeast  Level Estimated
03:36AM -4.3424 -59.8359 147° Southeast  Level Estimated
03:37AM -4.4662 -59.7557 147° Southeast  Level Estimated
03:38AM -4.5901 -59.6756 147° Southeast  Level Estimated
03:39AM -4.7139 -59.5954 147° Southeast  Level Estimated
03:40AM -4.8378 -59.5152 147° Southeast  Level Estimated
03:41AM -4.9616 -59.4350 147° Southeast  Level Estimated
03:42AM -5.0854 -59.3548 147° Southeast  Level Estimated
03:43AM -5.2092 -59.2745 147° Southeast  Level Estimated
03:44AM -5.3330 -59.1941 147° Southeast  Level Estimated
03:45AM -5.4568 -59.1138 147° Southeast  Level Estimated
03:46AM -5.5805 -59.0334 147° Southeast  Level Estimated
03:47AM -5.7043 -58.9530 147° Southeast  Level Estimated
03:48AM -5.8281 -58.8725 147° Southeast  Level Estimated
03:49AM -5.9518 -58.7920 147° Southeast  Level Estimated
03:50AM -6.0755 -58.7115 147° Southeast  Level Estimated
03:51AM -6.1992 -58.6309 147° Southeast  Level Estimated
03:52AM -6.3229 -58.5503 147° Southeast  Level Estimated
03:53AM -6.4466 -58.4697 147° Southeast  Level Estimated
03:54AM -6.5703 -58.3890 147° Southeast  Level Estimated
03:55AM -6.6940 -58.3083 147° Southeast  Level Estimated
03:56AM -6.8176 -58.2275 147° Southeast  Level Estimated
03:57AM -6.9413 -58.1467 147° Southeast  Level Estimated
03:58AM -7.0649 -58.0659 147° Southeast  Level Estimated
03:59AM -7.1885 -57.9850 147° Southeast  Level Estimated
04:00AM -7.3121 -57.9040 147° Southeast  Level Estimated
04:01AM -7.4357 -57.8231 147° Southeast  Level Estimated
04:02AM -7.5592 -57.7421 147° Southeast  Level Estimated
04:03AM -7.6828 -57.6610 147° Southeast  Level Estimated
04:04AM -7.8063 -57.5799 147° Southeast  Level Estimated
04:05AM -7.9299 -57.4987 147° Southeast  Level Estimated
04:06AM -8.0534 -57.4175 147° Southeast  Level Estimated
04:07AM -8.1769 -57.3362 147° Southeast  Level Estimated
04:08AM -8.3003 -57.2549 147° Southeast  Level Estimated
04:09AM -8.4238 -57.1735 147° Southeast  Level Estimated
04:10AM -8.5472 -57.0921 147° Southeast  Level Estimated
04:11AM -8.6706 -57.0107 147° Southeast  Level Estimated
04:12AM -8.7941 -56.9291 147° Southeast  Level Estimated
04:13AM -8.9174 -56.8475 147° Southeast  Level Estimated
04:14AM -9.0408 -56.7659 147° Southeast  Level Estimated
04:15AM -9.1642 -56.6842 147° Southeast  Level Estimated
04:16AM -9.2875 -56.6025 147° Southeast  Level Estimated
04:17AM -9.4108 -56.5207 147° Southeast  Level Estimated
04:18AM -9.5341 -56.4388 147° Southeast  Level Estimated
04:19AM -9.6574 -56.3569 147° Southeast  Level Estimated
04:20AM -9.7807 -56.2749 147° Southeast  Level Estimated
04:21AM -9.9039 -56.1929 147° Southeast  Level Estimated
04:22AM -10.0271 -56.1108 147° Southeast  Level Estimated
04:23AM -10.1503 -56.0286 147° Southeast  Level Estimated
04:24AM -10.2735 -55.9464 147° Southeast  Level Estimated
04:25AM -10.3967 -55.8641 147° Southeast  Level Estimated
04:26AM -10.5198 -55.7817 147° Southeast  Level Estimated
04:27AM -10.6429 -55.6993 147° Southeast  Level Estimated
04:28AM -10.7660 -55.6168 147° Southeast  Level Estimated
04:29AM -10.8891 -55.5343 147° Southeast  Level Estimated
04:30AM -11.0121 -55.4516 147° Southeast  Level Estimated
04:31AM -11.1352 -55.3689 147° Southeast  Level Estimated
04:32AM -11.2582 -55.2862 147° Southeast  Level Estimated
04:33AM -11.3812 -55.2033 147° Southeast  Level Estimated
04:34AM -11.5041 -55.1204 147° Southeast  Level Estimated
04:35AM -11.6271 -55.0374 147° Southeast  Level Estimated
04:36AM -11.7500 -54.9544 147° Southeast  Level Estimated
04:37AM -11.8729 -54.8713 146° Southeast  Level Estimated
04:38AM -11.9957 -54.7881 146° Southeast  Level Estimated
04:39AM -12.1186 -54.7048 146° Southeast  Level Estimated
04:40AM -12.2414 -54.6214 146° Southeast  Level Estimated
04:41AM -12.3642 -54.5380 146° Southeast  Level Estimated
04:42AM -12.4869 -54.4545 146° Southeast  Level Estimated
04:43AM -12.6096 -54.3709 146° Southeast  Level Estimated
04:44AM -12.7324 -54.2872 146° Southeast  Level Estimated
04:45AM -12.8551 -54.2035 146° Southeast  Level Estimated
04:46AM -12.9777 -54.1196 146° Southeast  Level Estimated
04:47AM -13.1003 -54.0357 146° Southeast  Level Estimated
04:48AM -13.2229 -53.9517 146° Southeast  Level Estimated
04:49AM -13.3455 -53.8676 146° Southeast  Level Estimated
04:50AM -13.4681 -53.7835 146° Southeast  Level Estimated
04:51AM -13.5906 -53.6992 146° Southeast  Level Estimated
04:52AM -13.7131 -53.6149 146° Southeast  Level Estimated
04:53AM -13.8355 -53.5304 146° Southeast  Level Estimated
04:54AM -13.9580 -53.4459 146° Southeast  Level Estimated
04:55AM -14.0804 -53.3613 146° Southeast  Level Estimated
04:56AM -14.2028 -53.2766 146° Southeast  Level Estimated
04:57AM -14.3249 -53.1920 146° Southeast  Level Estimated
04:58AM -14.4470 -53.1072 146° Southeast  Level Estimated
04:59AM -14.5691 -53.0224 146° Southeast  Level Estimated
05:00AM -14.6911 -52.9375 146° Southeast  Level Estimated
05:01AM -14.8131 -52.8525 146° Southeast  Level Estimated
05:02AM -14.9353 -52.7672 146° Southeast  Level Estimated
05:03AM -15.0575 -52.6819 146° Southeast  Level Estimated
05:04AM -15.1796 -52.5964 146° Southeast  Level Estimated
05:05AM -15.3017 -52.5108 146° Southeast  Level Estimated
05:06AM -15.4237 -52.4252 146° Southeast  Level Estimated
05:07AM -15.5458 -52.3394 146° Southeast  Level Estimated
05:08AM -15.6678 -52.2536 146° Southeast  Level Estimated
05:09AM -15.7898 -52.1676 146° Southeast  Level Estimated
05:10AM -15.9117 -52.0815 146° Southeast  Level Estimated
05:11AM -16.0336 -51.9954 146° Southeast  Level Estimated
05:12AM -16.1554 -51.9091 146° Southeast  Level Estimated
05:13AM -16.2773 -51.8227 146° Southeast  Level Estimated
05:14AM -16.3991 -51.7362 146° Southeast  Level Estimated
05:15AM -16.5208 -51.6496 146° Southeast  Level Estimated
05:16AM -16.6425 -51.5629 146° Southeast  Level Estimated
05:17AM -16.7642 -51.4761 146° Southeast  Level Estimated
05:18AM -16.8859 -51.3891 146° Southeast  Level Estimated
05:19AM -17.0075 -51.3021 146° Southeast  Level Estimated
05:20AM -17.1291 -51.2150 146° Southeast  Level Estimated
05:21AM -17.2506 -51.1277 146° Southeast  Level Estimated
05:22AM -17.3721 -51.0403 146° Southeast  Level Estimated
05:23AM -17.4936 -50.9528 146° Southeast  Level Estimated
05:24AM -17.6150 -50.8652 145° Southeast  Level Estimated
05:25AM -17.7364 -50.7775 145° Southeast  Level Estimated
05:26AM -17.8577 -50.6896 145° Southeast  Level Estimated
05:27AM -17.9790 -50.6016 145° Southeast  Level Estimated
05:28AM -18.1003 -50.5135 145° Southeast  Level Estimated
05:29AM -18.2215 -50.4253 145° Southeast  Level Estimated
05:30AM -18.3427 -50.3370 145° Southeast  Level Estimated
05:31AM -18.4639 -50.2485 145° Southeast  Level Estimated
05:32AM -18.5850 -50.1599 145° Southeast  Level Estimated
05:33AM -18.7061 -50.0712 145° Southeast  Level Estimated
05:34AM -18.8271 -49.9824 145° Southeast  Level Estimated
05:35AM -18.9480 -49.8934 145° Southeast  Level Estimated
05:36AM -19.0690 -49.8043 145° Southeast  Level Estimated
05:37AM -19.1899 -49.7151 145° Southeast  Level Estimated
05:38AM -19.3107 -49.6257 145° Southeast  Level Estimated
05:39AM -19.4315 -49.5362 145° Southeast  Level Estimated
05:40AM -19.5523 -49.4466 145° Southeast  Level Estimated
05:41AM -19.6730 -49.3569 145° Southeast  Level Estimated
05:42AM -19.7937 -49.2670 145° Southeast  Level Estimated
05:43AM -19.9143 -49.1769 145° Southeast  Level Estimated
05:44AM -20.0349 -49.0868 145° Southeast  Level Estimated
05:45AM -20.1555 -48.9965 145° Southeast  Level Estimated
05:46AM -20.2759 -48.9060 145° Southeast  Level Estimated
05:47AM -20.3964 -48.8154 145° Southeast  Level Estimated
05:48AM -20.5168 -48.7247 145° Southeast  Level Estimated
05:49AM -20.6371 -48.6338 145° Southeast  Level Estimated
05:50AM -20.7575 -48.5428 145° Southeast  Level Estimated
05:51AM -20.8777 -48.4516 145° Southeast  Level Estimated
05:52AM -20.9979 -48.3603 145° Southeast  Level Estimated
05:53AM -21.1181 -48.2689 145° Southeast  Level Estimated
05:54AM -21.2382 -48.1773 145° Southeast  Level Estimated
05:55AM -21.3583 -48.0855 145° Southeast  Level Estimated
05:56AM -21.4783 -47.9936 145° Southeast  Level Estimated
05:57AM -21.5982 -47.9016 144° Southeast  Level Estimated
05:58AM -21.7181 -47.8094 144° Southeast  Level Estimated
05:58AM -19.1910 -49.7210 144° Southeast 534 615 41,000  Level FlightAware
05:59AM -21.8380 -47.7170 144° Southeast  Level Estimated
05:59AM -19.2670 -49.6570 142° Southeast 534 615 41,000  Level FlightAware
05:59AM -19.3600 -49.5780 141° Southeast 535 616 41,000  Level FlightAware
06:01AM -19.4850 -49.4730 142° Southeast 532 612 41,000  Level FlightAware
06:01AM -19.5650 -49.4060 142° Southeast 532 612 41,000  Level FlightAware
06:02AM -19.6400 -49.3420 141° Southeast 532 612 41,000  Level FlightAware
06:03AM -19.7280 -49.2680 142° Southeast 531 611 41,000  Level FlightAware
06:03AM -19.8050 -49.2040 142° Southeast 531 611 41,000  Level FlightAware
06:04AM -19.8810 -49.1390 141° Southeast 530 610 41,000  Level FlightAware
06:05AM -19.9690 -49.0650 142° Southeast 530 610 41,000  Level FlightAware
06:06AM -20.0750 -48.9740 141° Southeast 529 609 41,000  Level FlightAware
06:06AM -20.1520 -48.9090 142° Southeast 530 610 41,000  Level FlightAware
06:07AM -20.2390 -48.8350 141° Southeast 529 609 41,000  Level FlightAware
06:08AM -20.3260 -48.7620 142° Southeast 528 608 41,000  Level FlightAware
06:08AM -20.3900 -48.7080 142° Southeast 528 608 41,000  Level FlightAware
06:09AM -20.4800 -48.6320 142° Southeast 529 609 41,000  Level FlightAware
06:10AM -20.5660 -48.5590 142° Southeast 528 608 41,000  Level FlightAware
06:11AM -20.6520 -48.4870 142° Southeast 528 608 41,000  Level FlightAware
06:11AM -20.7200 -48.4290 141° Southeast 528 608 41,000  Level FlightAware
06:12AM -20.8050 -48.3570 142° Southeast 527 606 41,000  Level FlightAware
06:13AM -20.8830 -48.2910 142° Southeast 527 606 41,000  Level FlightAware
06:13AM -20.9660 -48.2200 141° Southeast 527 606 41,000  Level FlightAware
06:14AM -21.0430 -48.1540 141° Southeast 527 606 41,000  Level FlightAware
06:15AM -21.1200 -48.0890 142° Southeast 527 606 41,000  Level FlightAware
06:15AM -21.2060 -48.0150 141° Southeast 526 605 41,000  Level FlightAware
06:16AM -21.2900 -47.9430 141° Southeast 525 604 41,000 -780 Level FlightAware
06:17AM -21.3650 -47.8790 142° Southeast 524 603 39,900 -2,100 Descending FlightAware
06:18AM -21.4540 -47.8030 142° Southeast 522 601 38,100 -2,400 Descending FlightAware
06:18AM -21.5300 -47.7370 141° Southeast 523 602 36,500 -2,340 Descending FlightAware
06:19AM -21.6060 -47.6720 142° Southeast 521 600 35,000 -1,860 Descending FlightAware
06:20AM -21.6880 -47.6010 141° Southeast 504 580 33,900 -1,440 Descending FlightAware
06:20AM -21.7510 -47.5470 141° Southeast 489 563 33,100 -1,500 Descending FlightAware
06:21AM -21.8270 -47.4810 141° Southeast 476 548 31,900 -1,740 Descending FlightAware
06:22AM -21.9050 -47.4140 141° Southeast 466 536 30,500 -1,860 Descending FlightAware
06:22AM -21.9730 -47.3570 142° Southeast 457 526 29,300 -1,740 Descending FlightAware
06:23AM -22.0520 -47.3170 155° Southeast 445 512 28,100 -1,740 Descending FlightAware
06:24AM -22.1310 -47.2840 159° South 437 503 26,900 -1,440 Descending FlightAware
06:25AM -22.1940 -47.2580 159° South 422 486 26,200 -1,500 Descending FlightAware
06:25AM -22.2810 -47.2220 159° South 412 474 24,800 -1,740 Descending FlightAware
06:26AM -22.3400 -47.1980 159° South 405 466 23,900 -1,740 Descending FlightAware
06:27AM -22.4250 -47.1620 159° South 395 455 22,500 -1,740 Descending FlightAware
06:27AM -22.5020 -47.1300 159° South 379 436 21,300 -1,680 Descending FlightAware
06:28AM -22.5680 -47.1020 159° South 379 436 20,200 -1,680 Descending FlightAware
06:29AM -22.6390 -47.0710 158° South 364 419 19,000 -1,680 Descending FlightAware
06:29AM -22.7050 -47.0440 159° South 364 419 17,900 -1,620 Descending FlightAware
06:30AM -22.7670 -47.0180 159° South 350 403 16,900 -1,560 Descending FlightAware
06:31AM -22.8360 -46.9890 159° South 349 402 15,700 -1,740 Descending FlightAware
06:32AM -22.8970 -46.9630 159° South 345 397 14,500 -1,860 Descending FlightAware
06:32AM -22.9630 -46.9350 159° South 346 398 13,100 -1,920 Descending FlightAware
06:33AM -23.0240 -46.9100 159° South 330 380 11,800 -1,860 Descending FlightAware
06:34AM -23.0840 -46.8850 159° South 295 339 10,500 -1,560 Descending FlightAware
06:34AM -23.1160 -46.8710 158° South 275 316 10,000 -1,200 Descending FlightAware
06:35AM -23.1530 -46.8560 160° South 277 319 9,400 -1,140 Descending FlightAware
06:35AM -23.1880 -46.8410 158° South 265 305 8,900 -1,140 Descending FlightAware
06:36AM -23.2170 -46.8290 159° South 263 303 8,400 -1,200 Descending FlightAware
06:36AM -23.2460 -46.8160 158° South 261 300 7,900 -900 Descending FlightAware
06:36AM -23.2800 -46.8020 159° South 243 280 7,600 -540 Descending FlightAware
06:37AM -23.2960 -46.7950 158° South 241 277 7,500 -420 Descending FlightAware
06:37AM -23.3260 -46.7830 160° South 223 257 7,300 -480 Descending FlightAware
06:38AM -23.3500 -46.7720 157° South 213 245 7,100 -480 Descending FlightAware
06:38AM -23.3770 -46.7580 155° Southeast 219 252 6,900 -780 Descending FlightAware
06:39AM -23.3970 -46.7400 140° Southeast 218 251 6,400 -1,320 Descending FlightAware
06:39AM -23.4210 -46.7170 139° Southeast 218 251 5,700 -1,200 Descending FlightAware
06:39AM -23.4320 -46.7070 140° Southeast 214 246 5,500 -780 Descending FlightAware
06:40AM -23.4480 -46.6890 134° Southeast 200 230 5,200 -780 Descending FlightAware
06:40AM -23.4610 -46.6620 118° Southeast 189 217 4,800 -660 Descending FlightAware
06:41AM -23.4700 -46.6410 115° Southeast 182 209 4,600 -540 Descending FlightAware
06:41AM -23.4740 -46.6240 104° East 175 201 4,400 -300 Descending FlightAware
06:41AM -23.4700 -46.6030 78° East 162 186 4,400 -600 Level FlightAware
06:42AM -23.4640 -46.5800 74° East 157 181 3,900 -1,020 Descending FlightAware
06:42AM -23.4590 -46.5620 73° East 136 157 3,500 -840 Descending FlightAware
06:43AM -23.4550 -46.5450 76° East 137 158 3,200 -600 Descending FlightAware
06:43AM -23.4500 -46.5280 72° East 139 160 3,000 -720 Descending FlightAware
06:44AM -23.4440 -46.5050 74° East 136 157 2,500 -840 Descending FlightAware
06:44AM -23.4390 -46.4880 72° East 131 151 2,200 -720 Descending FlightAware